Terminal Aerodrome Forecast
Issued by NWS

Home | Current Version | Previous Version | Text Only | Print | Product List | Glossary On
Versions: 1 2 3 4 5 6 7 8 9 10 11 12 13
000
FTAK31 PAJN 281100
TAFAGY
TAF
PAGY 281135Z 2812/0112 VRB03KT P6SM BKN150
     FM281600 21008KT P6SM SCT060 OVC120
     FM282100 21013KT P6SM BKN050 BKN100
     FM010500 21008KT P6SM VCSH OVC050
     FM011000 21006KT 6SM -SN BR BKN020 OVC040
      AMD LTD TO CLD VIS AND WIND=

USA.gov is the U.S. government's official web portal to all federal, state and local government web resources and services.